createdAt,value
2022-11-10T00:01:22.329Z,98844.19
2022-11-10T00:04:07.323Z,98849.47
2022-11-10T00:06:52.737Z,98847.47
2022-11-10T00:09:38.075Z,98850.13
2022-11-10T00:12:23.015Z,98855.03
2022-11-10T00:15:28.376Z,98872.44
2022-11-10T00:18:13.447Z,98875.56
2022-11-10T00:21:03.798Z,98884.09
2022-11-10T00:23:48.602Z,98888.34
2022-11-10T00:26:33.529Z,98897.63
2022-11-10T00:29:18.792Z,98901.13
2022-11-10T00:32:03.981Z,98901.44
2022-11-10T00:34:49.289Z,98905.53
2022-11-10T00:37:34.107Z,98906.19
2022-11-10T00:40:19.300Z,98906.69
2022-11-10T00:43:04.282Z,98911.13
2022-11-10T00:45:49.279Z,98912.63
2022-11-10T00:48:34.621Z,98905.56
2022-11-10T00:51:27.613Z,98912.63
2022-11-10T00:54:13.092Z,98920.53
2022-11-10T00:56:58.497Z,98922.47
2022-11-10T00:59:43.473Z,98925.81
2022-11-10T01:02:28.779Z,98936.94
2022-11-10T01:05:13.750Z,98942.88
2022-11-10T01:07:59.538Z,98950.56
2022-11-10T01:10:44.849Z,98952.06
2022-11-10T01:13:30.140Z,98952.41
2022-11-10T01:16:21.954Z,98958.28
2022-11-10T01:19:07.022Z,98970.09
2022-11-10T01:21:52.268Z,98975.22
2022-11-10T01:24:37.072Z,98976.38
2022-11-10T01:27:21.743Z,98977.19
2022-11-10T01:30:07.296Z,98987.84
2022-11-10T01:32:52.394Z,98982.72
2022-11-10T01:35:37.265Z,98984.97
2022-11-10T01:38:22.811Z,98986.06
2022-11-10T01:41:12.219Z,98992.44
2022-11-10T01:44:34.609Z,98990.00
2022-11-10T01:47:19.663Z,98993.91
2022-11-10T01:50:05.421Z,98988.94
2022-11-10T01:52:54.958Z,98996.31
2022-11-10T01:55:43.185Z,98993.28
2022-11-10T01:58:39.861Z,99003.16
2022-11-10T02:01:25.530Z,99006.09
2022-11-10T02:04:15.470Z,98999.69
2022-11-10T02:07:00.950Z,99002.81
2022-11-10T02:09:46.005Z,99007.28
2022-11-10T02:12:37.982Z,98999.47
2022-11-10T02:15:23.061Z,99002.69
2022-11-10T02:18:08.667Z,98997.91
2022-11-10T02:20:53.655Z,99003.38
2022-11-10T02:23:38.942Z,99000.78
2022-11-10T02:26:27.439Z,99004.16
2022-11-10T02:29:13.141Z,99007.78
2022-11-10T02:31:58.188Z,99008.28
2022-11-10T02:34:43.438Z,99007.25
2022-11-10T02:37:28.312Z,99006.44
2022-11-10T02:40:13.344Z,99007.47
2022-11-10T02:42:58.383Z,99004.31
2022-11-10T02:45:46.166Z,99002.69
2022-11-10T02:48:30.947Z,99012.88
2022-11-10T02:51:16.085Z,99004.97
2022-11-10T02:54:01.077Z,99004.81
2022-11-10T02:56:46.132Z,99013.31
2022-11-10T02:59:31.229Z,99024.66
2022-11-10T03:02:16.327Z,99037.16
2022-11-10T03:05:01.633Z,99027.75
2022-11-10T03:07:56.089Z,99034.84
2022-11-10T03:10:41.092Z,99026.97
2022-11-10T03:13:35.578Z,99029.25
2022-11-10T03:16:31.334Z,99026.41
2022-11-10T03:19:16.249Z,99028.66
2022-11-10T03:22:01.877Z,99035.06
2022-11-10T03:24:46.949Z,99034.88
2022-11-10T03:27:31.935Z,99040.63
2022-11-10T03:30:16.859Z,99052.63
2022-11-10T03:33:01.985Z,99055.59
2022-11-10T03:35:46.968Z,99065.81
2022-11-10T03:38:31.769Z,99066.25
2022-11-10T03:41:19.767Z,99068.53
2022-11-10T03:44:05.331Z,99076.31
2022-11-10T03:46:51.739Z,99081.72
2022-11-10T03:49:36.851Z,99082.13
2022-11-10T03:52:21.881Z,99095.22
2022-11-10T03:55:07.163Z,99093.72
2022-11-10T03:57:52.167Z,99089.88
2022-11-10T04:00:37.432Z,99102.91
2022-11-10T04:03:23.518Z,99100.25
2022-11-10T04:06:29.679Z,99096.31
2022-11-10T04:09:14.631Z,99108.31
2022-11-10T04:12:22.114Z,99107.44
2022-11-10T04:15:30.191Z,99109.75
2022-11-10T04:18:21.711Z,99110.56
2022-11-10T04:21:06.735Z,99119.97
2022-11-10T04:23:51.722Z,99126.06
2022-11-10T04:26:40.617Z,99131.66
2022-11-10T04:29:25.818Z,99122.81
2022-11-10T04:32:10.493Z,99123.13
2022-11-10T04:34:55.684Z,99135.13
2022-11-10T04:37:40.836Z,99128.88
2022-11-10T04:40:26.063Z,99133.63
2022-11-10T04:43:10.914Z,99138.94
2022-11-10T04:45:57.008Z,99155.88
2022-11-10T04:48:42.010Z,99159.19
2022-11-10T04:51:30.305Z,99156.22
2022-11-10T04:54:15.766Z,99172.50
2022-11-10T04:57:01.003Z,99168.56
2022-11-10T04:59:45.858Z,99159.50
2022-11-10T05:02:33.436Z,99157.53
2022-11-10T05:05:21.748Z,99154.41
2022-11-10T05:08:07.060Z,99161.47
2022-11-10T05:10:51.915Z,99171.66
2022-11-10T05:13:37.273Z,99177.94
2022-11-10T05:16:22.469Z,99176.94
2022-11-10T05:19:08.280Z,99178.91
2022-11-10T05:21:53.130Z,99180.75
2022-11-10T05:24:38.090Z,99180.09
2022-11-10T05:27:23.091Z,99182.06
2022-11-10T05:30:08.922Z,99182.09
2022-11-10T05:32:54.304Z,99189.97
2022-11-10T05:35:40.113Z,99205.91
2022-11-10T05:38:25.464Z,99205.78
2022-11-10T05:41:11.397Z,99207.44
2022-11-10T05:43:56.661Z,99208.25
2022-11-10T05:46:41.531Z,99227.81
2022-11-10T05:49:27.457Z,99227.31
2022-11-10T05:52:12.534Z,99245.28
2022-11-10T05:54:57.476Z,99253.50
2022-11-10T05:57:47.419Z,99250.56
2022-11-10T06:00:32.622Z,99240.19
2022-11-10T06:03:19.588Z,99246.94
2022-11-10T06:06:05.554Z,99253.34
2022-11-10T06:08:50.632Z,99267.81
2022-11-10T06:11:35.820Z,99276.91
2022-11-10T06:14:20.727Z,99278.38
2022-11-10T06:17:05.717Z,99280.38
2022-11-10T06:19:51.436Z,99286.59
2022-11-10T06:22:36.289Z,99298.31
2022-11-10T06:25:21.521Z,99302.38
2022-11-10T06:28:07.414Z,99308.34
2022-11-10T06:30:52.536Z,99308.97
2022-11-10T06:33:37.443Z,99312.47
2022-11-10T06:36:22.835Z,99323.34
2022-11-10T06:39:08.115Z,99335.19
2022-11-10T06:41:52.933Z,99345.25
2022-11-10T06:44:37.835Z,99349.84
2022-11-10T06:47:22.756Z,99347.38
2022-11-10T06:50:07.916Z,99346.25
2022-11-10T06:52:57.107Z,99347.19
2022-11-10T06:55:41.838Z,99344.38
2022-11-10T06:58:26.522Z,99364.69
2022-11-10T07:01:11.411Z,99362.50
2022-11-10T07:04:18.259Z,99378.97
2022-11-10T07:07:01.278Z,99388.19
2022-11-10T07:09:46.163Z,99379.00
2022-11-10T07:12:30.993Z,99377.03
2022-11-10T07:15:15.949Z,99381.41
2022-11-10T07:18:05.205Z,99386.03
2022-11-10T07:20:50.031Z,99389.84
2022-11-10T07:23:35.002Z,99398.94
2022-11-10T07:26:20.519Z,99400.56
2022-11-10T07:29:05.448Z,99399.06
2022-11-10T07:31:50.265Z,99406.03
2022-11-10T07:34:35.336Z,99399.91
2022-11-10T07:37:20.507Z,99414.06
2022-11-10T07:40:06.312Z,99420.50
2022-11-10T07:42:51.481Z,99425.78
2022-11-10T07:45:36.428Z,99416.56
2022-11-10T07:48:21.623Z,99423.47
2022-11-10T07:51:06.654Z,99435.81
2022-11-10T07:53:51.734Z,99442.22
2022-11-10T07:56:36.607Z,99441.41
2022-11-10T07:59:21.498Z,99447.34
2022-11-10T08:02:09.689Z,99452.28
2022-11-10T08:04:54.819Z,99462.69
2022-11-10T08:07:41.191Z,99466.66
2022-11-10T08:10:27.812Z,99464.97
2022-11-10T08:13:13.997Z,99468.59
2022-11-10T08:15:59.554Z,99474.56
2022-11-10T08:18:44.512Z,99483.28
2022-11-10T08:21:29.665Z,99487.72
2022-11-10T08:24:14.954Z,99495.97
2022-11-10T08:27:00.239Z,99492.50
2022-11-10T08:29:45.539Z,99500.72
2022-11-10T08:32:30.795Z,99505.50
2022-11-10T08:35:16.120Z,99503.84
2022-11-10T08:38:27.908Z,99505.16
2022-11-10T08:41:13.122Z,99513.91
2022-11-10T08:43:58.383Z,99517.38
2022-11-10T08:46:44.428Z,99528.09
2022-11-10T08:49:29.321Z,99527.88
2022-11-10T08:52:14.446Z,99518.91
2022-11-10T08:54:59.639Z,99522.75
2022-11-10T08:57:44.832Z,99535.97
2022-11-10T09:00:31.807Z,99535.81
2022-11-10T09:03:24.591Z,99543.06
2022-11-10T09:06:09.949Z,99547.63
2022-11-10T09:08:55.432Z,99549.78
2022-11-10T09:11:40.571Z,99555.59
2022-11-10T09:14:25.497Z,99562.13
2022-11-10T09:17:10.392Z,99567.56
2022-11-10T09:19:55.374Z,99570.69
2022-11-10T09:22:40.859Z,99572.09
2022-11-10T09:25:25.961Z,99572.25
2022-11-10T09:28:14.754Z,99571.81
2022-11-10T09:30:59.966Z,99575.59
2022-11-10T09:33:45.133Z,99583.88
2022-11-10T09:36:30.463Z,99578.81
2022-11-10T09:39:15.239Z,99574.44
2022-11-10T09:42:00.121Z,99579.25
2022-11-10T09:44:54.930Z,99587.75
2022-11-10T09:47:58.293Z,99593.47
2022-11-10T09:50:52.839Z,99585.84
2022-11-10T09:53:58.430Z,99585.38
2022-11-10T09:56:43.357Z,99584.63
2022-11-10T09:59:32.197Z,99603.75
2022-11-10T10:02:39.224Z,99608.41
2022-11-10T10:05:51.583Z,99603.78
2022-11-10T10:08:55.567Z,99599.03
2022-11-10T10:11:46.500Z,99609.56
2022-11-10T10:15:13.582Z,99614.53
2022-11-10T10:18:07.777Z,99613.50
2022-11-10T10:21:26.716Z,99611.31
2022-11-10T10:24:20.162Z,99611.13
2022-11-10T10:27:13.369Z,99613.03
2022-11-10T10:29:58.496Z,99613.59
2022-11-10T10:32:43.789Z,99606.03
2022-11-10T10:35:29.501Z,99609.91
2022-11-10T10:38:33.483Z,99615.88
2022-11-10T10:41:30.995Z,99617.63
2022-11-10T10:44:18.832Z,99607.75
2022-11-10T10:47:04.768Z,99597.00
2022-11-10T10:49:50.057Z,99597.00
2022-11-10T10:52:35.804Z,99600.25
2022-11-10T10:55:20.752Z,99590.63
2022-11-10T10:58:23.753Z,99587.75
2022-11-10T11:01:15.006Z,99580.56
2022-11-10T11:04:01.863Z,99594.25
2022-11-10T11:06:58.143Z,99597.88
2022-11-10T11:09:44.328Z,99598.97
2022-11-10T11:12:31.590Z,99607.72
2022-11-10T11:15:29.223Z,99594.75
2022-11-10T11:18:16.630Z,99603.41
2022-11-10T11:21:28.494Z,99596.59
2022-11-10T11:24:21.595Z,99593.16
2022-11-10T11:27:28.226Z,99591.78
2022-11-10T11:30:20.817Z,99596.97
2022-11-10T11:33:11.702Z,99603.28
2022-11-10T11:35:59.727Z,99607.31
2022-11-10T11:39:05.224Z,99614.25
2022-11-10T11:41:53.204Z,99620.78
2022-11-10T11:45:04.615Z,99619.88
2022-11-10T11:47:49.708Z,99625.88
2022-11-10T11:50:50.330Z,99632.16
2022-11-10T11:53:55.245Z,99621.34
2022-11-10T11:56:43.407Z,99616.81
2022-11-10T11:59:50.084Z,99620.94
2022-11-10T12:02:56.952Z,99625.31
2022-11-10T12:05:54.845Z,99623.28
2022-11-10T12:08:54.137Z,99623.97
2022-11-10T12:12:05.694Z,99633.06
2022-11-10T12:15:24.632Z,99624.63
2022-11-10T12:18:34.539Z,99624.16
2022-11-10T12:21:25.895Z,99623.34
2022-11-10T12:24:22.886Z,99619.03
2022-11-10T12:27:20.678Z,99624.31
2022-11-10T12:30:12.955Z,99630.44
2022-11-10T12:33:19.175Z,99634.84
2022-11-10T12:36:11.642Z,99640.59
2022-11-10T12:39:02.929Z,99639.56
2022-11-10T12:41:57.921Z,99636.94
2022-11-10T12:44:56.354Z,99644.44
2022-11-10T12:47:45.110Z,99642.25
2022-11-10T12:50:39.047Z,99644.75
2022-11-10T12:53:35.056Z,99646.97
2022-11-10T12:56:25.364Z,99655.09
2022-11-10T12:59:34.914Z,99651.84
2022-11-10T13:02:26.038Z,99655.50
2022-11-10T13:05:13.756Z,99661.84
2022-11-10T13:08:27.142Z,99668.38
2022-11-10T13:11:12.270Z,99660.47
2022-11-10T13:14:00.369Z,99672.78
2022-11-10T13:16:51.199Z,99685.16
2022-11-10T13:19:38.904Z,99684.53
2022-11-10T13:22:34.586Z,99685.19
2022-11-10T13:25:37.931Z,99690.81
2022-11-10T13:28:47.796Z,99694.63
2022-11-10T13:31:32.677Z,99692.63
2022-11-10T13:34:26.712Z,99692.16
2022-11-10T13:37:30.005Z,99697.13
2022-11-10T13:40:24.346Z,99697.09
2022-11-10T13:43:22.826Z,99696.69
2022-11-10T13:46:07.802Z,99687.66
2022-11-10T13:49:12.929Z,99686.41
2022-11-10T13:52:22.105Z,99693.09
2022-11-10T13:55:21.262Z,99692.63
2022-11-10T13:58:10.501Z,99693.53
2022-11-10T14:01:17.404Z,99697.00
2022-11-10T14:04:04.260Z,99706.75
2022-11-10T14:06:53.112Z,99699.78
2022-11-10T14:09:41.280Z,99699.97
2022-11-10T14:12:43.753Z,99705.25
2022-11-10T14:15:38.928Z,99701.59
2022-11-10T14:18:38.518Z,99709.84
2022-11-10T14:21:40.163Z,99711.50
2022-11-10T14:24:38.068Z,99720.06
2022-11-10T14:27:27.204Z,99722.06
2022-11-10T14:30:21.074Z,99720.53
2022-11-10T14:33:10.828Z,99715.25
2022-11-10T14:36:00.279Z,99727.22
2022-11-10T14:38:46.030Z,99719.34
2022-11-10T14:41:31.451Z,99719.78
2022-11-10T14:44:24.004Z,99727.81
2022-11-10T14:47:24.502Z,99735.19
2022-11-10T14:50:27.387Z,99743.81
2022-11-10T14:53:33.424Z,99758.19
2022-11-10T14:56:34.984Z,99752.41
2022-11-10T14:59:22.225Z,99754.19
2022-11-10T15:02:13.943Z,99753.78
2022-11-10T15:04:59.007Z,99755.34
2022-11-10T15:07:45.755Z,99756.25
2022-11-10T15:10:39.983Z,99761.25
2022-11-10T15:13:28.175Z,99752.66
2022-11-10T15:16:31.457Z,99759.56
2022-11-10T15:19:45.806Z,99759.28
2022-11-10T15:22:36.239Z,99758.84
2022-11-10T15:25:30.812Z,99756.31
2022-11-10T15:28:26.657Z,99756.69
2022-11-10T15:31:21.110Z,99749.16
2022-11-10T15:34:06.245Z,99752.69
2022-11-10T15:37:27.412Z,99751.00
2022-11-10T15:40:44.227Z,99749.38
2022-11-10T15:43:29.241Z,99765.47
2022-11-10T15:46:21.023Z,99767.03
2022-11-10T15:49:13.456Z,99765.22
2022-11-10T15:52:02.389Z,99769.06
2022-11-10T15:54:50.058Z,99762.38
2022-11-10T15:57:35.326Z,99765.53
2022-11-10T16:00:20.432Z,99771.28
2022-11-10T16:03:10.490Z,99774.03
2022-11-10T16:05:55.582Z,99776.53
2022-11-10T16:08:41.187Z,99777.50
2022-11-10T16:11:27.617Z,99772.72
2022-11-10T16:14:16.754Z,99772.66
2022-11-10T16:17:02.014Z,99772.50
2022-11-10T16:19:47.206Z,99773.25
2022-11-10T16:22:32.023Z,99781.09
2022-11-10T16:25:23.828Z,99780.63
2022-11-10T16:28:17.182Z,99780.75
2022-11-10T16:31:02.304Z,99782.22
2022-11-10T16:33:47.301Z,99789.22
2022-11-10T16:36:34.197Z,99784.31
2022-11-10T16:39:19.283Z,99790.38
2022-11-10T16:42:04.076Z,99784.13
2022-11-10T16:44:48.956Z,99787.94
2022-11-10T16:47:33.828Z,99793.38
2022-11-10T16:50:33.178Z,99790.16
2022-11-10T16:53:21.807Z,99794.38
2022-11-10T16:56:15.738Z,99804.88
2022-11-10T16:59:00.725Z,99806.63
2022-11-10T17:01:46.846Z,99815.28
2022-11-10T17:04:32.381Z,99814.53
2022-11-10T17:07:21.201Z,99813.25
2022-11-10T17:10:07.210Z,99828.50
2022-11-10T17:12:52.395Z,99826.94
2022-11-10T17:15:38.089Z,99821.69
2022-11-10T17:18:24.655Z,99823.81
2022-11-10T17:21:12.512Z,99835.63
2022-11-10T17:23:57.443Z,99844.03
2022-11-10T17:26:43.019Z,99844.50
2022-11-10T17:29:29.179Z,99839.69
2022-11-10T17:32:14.429Z,99852.69
2022-11-10T17:34:59.143Z,99848.69
2022-11-10T17:37:49.340Z,99849.47
2022-11-10T17:40:35.759Z,99847.56
2022-11-10T17:43:22.032Z,99844.44
2022-11-10T17:46:07.120Z,99849.41
2022-11-10T17:49:00.150Z,99861.25
2022-11-10T17:51:47.781Z,99860.03
2022-11-10T17:54:32.999Z,99857.06
2022-11-10T17:57:18.096Z,99854.75
2022-11-10T18:00:03.703Z,99857.19
2022-11-10T18:02:55.194Z,99860.19
2022-11-10T18:05:41.027Z,99853.75
2022-11-10T18:08:26.036Z,99855.41
2022-11-10T18:11:12.582Z,99853.38
2022-11-10T18:13:57.667Z,99852.47
2022-11-10T18:16:42.471Z,99843.22
2022-11-10T18:19:27.271Z,99843.88
2022-11-10T18:22:12.472Z,99852.28
2022-11-10T18:24:57.336Z,99849.28
2022-11-10T18:27:42.484Z,99835.84
2022-11-10T18:30:29.832Z,99841.28
2022-11-10T18:33:18.628Z,99839.34
2022-11-10T18:36:04.216Z,99841.28
2022-11-10T18:38:48.990Z,99843.38
2022-11-10T18:41:49.231Z,99845.09
2022-11-10T18:44:37.159Z,99850.66
2022-11-10T18:47:21.948Z,99855.94
2022-11-10T18:50:07.541Z,99853.56
2022-11-10T18:52:52.686Z,99850.09
2022-11-10T18:55:41.676Z,99845.22
2022-11-10T18:58:29.313Z,99842.19
2022-11-10T19:01:14.533Z,99853.53
2022-11-10T19:03:59.808Z,99855.56
2022-11-10T19:06:45.015Z,99855.47
2022-11-10T19:09:30.070Z,99859.25
2022-11-10T19:12:15.214Z,99862.91
2022-11-10T19:15:00.175Z,99863.16
2022-11-10T19:17:45.170Z,99858.84
2022-11-10T19:20:30.128Z,99853.22
2022-11-10T19:23:15.198Z,99845.66
2022-11-10T19:26:04.640Z,99848.66
2022-11-10T19:28:50.070Z,99867.63
2022-11-10T19:31:34.806Z,99871.81
2022-11-10T19:34:20.173Z,99871.78
2022-11-10T19:37:05.762Z,99879.41
2022-11-10T19:39:50.912Z,99889.97
2022-11-10T19:42:36.182Z,99885.47
2022-11-10T19:45:21.352Z,99902.97
2022-11-10T19:48:06.682Z,99920.19
2022-11-10T19:50:56.286Z,99924.22
2022-11-10T19:53:42.760Z,99919.13
2022-11-10T19:56:31.860Z,99927.06
2022-11-10T19:59:19.235Z,99928.13
2022-11-10T20:02:04.374Z,99922.84
2022-11-10T20:05:08.322Z,99927.28
2022-11-10T20:08:11.824Z,99933.91
2022-11-10T20:11:06.693Z,99933.69
2022-11-10T20:13:57.591Z,99929.16
2022-11-10T20:16:42.789Z,99929.31
2022-11-10T20:19:28.040Z,99929.31
2022-11-10T20:22:13.558Z,99921.91
2022-11-10T20:24:58.766Z,99926.22
2022-11-10T20:27:44.075Z,99923.22
2022-11-10T20:30:29.587Z,99938.53
2022-11-10T20:33:14.867Z,99928.22
2022-11-10T20:36:08.647Z,99920.75
2022-11-10T20:38:55.939Z,99925.59
2022-11-10T20:41:41.322Z,99921.63
2022-11-10T20:44:26.590Z,99914.78
2022-11-10T20:47:11.801Z,99913.66
2022-11-10T20:49:56.709Z,99917.78
2022-11-10T20:52:41.923Z,99915.09
2022-11-10T20:55:52.032Z,99918.25
2022-11-10T20:58:32.277Z,99922.81
2022-11-10T21:01:17.850Z,99923.75
2022-11-10T21:04:03.160Z,99917.69
2022-11-10T21:06:48.882Z,99922.50
2022-11-10T21:09:33.974Z,99929.91
2022-11-10T21:12:37.494Z,99935.34
2022-11-10T21:15:22.679Z,99929.03
2022-11-10T21:18:07.656Z,99928.63
2022-11-10T21:20:54.119Z,99933.38
2022-11-10T21:23:39.447Z,99929.88
2022-11-10T21:26:24.610Z,99932.25
2022-11-10T21:29:10.057Z,99935.84
2022-11-10T21:31:54.881Z,99932.81
2022-11-10T21:34:40.957Z,99942.63
2022-11-10T21:37:26.889Z,99938.78
2022-11-10T21:40:12.736Z,99923.25
2022-11-10T21:42:58.469Z,99917.47
2022-11-10T21:45:43.642Z,99922.00
2022-11-10T21:48:29.049Z,99923.56
2022-11-10T21:51:14.317Z,99914.41
2022-11-10T21:53:59.442Z,99915.41
2022-11-10T21:56:44.645Z,99912.88
2022-11-10T21:59:29.497Z,99905.19
2022-11-10T22:02:15.022Z,99911.13
2022-11-10T22:05:00.030Z,99906.09
2022-11-10T22:07:44.899Z,99900.13
2022-11-10T22:11:05.217Z,99901.00
2022-11-10T22:14:08.790Z,99902.19
2022-11-10T22:17:12.513Z,99900.66
2022-11-10T22:19:57.722Z,99906.50
2022-11-10T22:22:42.490Z,99902.91
2022-11-10T22:25:27.326Z,99913.81
2022-11-10T22:28:14.862Z,99918.00
2022-11-10T22:31:02.673Z,99924.38
2022-11-10T22:33:47.720Z,99936.13
2022-11-10T22:36:33.248Z,99934.06
2022-11-10T22:39:18.957Z,99937.63
2022-11-10T22:42:22.611Z,99944.84
2022-11-10T22:45:08.274Z,99942.88
2022-11-10T22:48:12.395Z,99937.63
2022-11-10T22:50:59.313Z,99939.53
2022-11-10T22:53:45.212Z,99934.59
2022-11-10T22:56:31.966Z,99929.88
2022-11-10T22:59:18.185Z,99931.69
2022-11-10T23:02:03.793Z,99927.41
2022-11-10T23:04:49.026Z,99933.09
2022-11-10T23:07:33.899Z,99925.50
2022-11-10T23:10:18.776Z,99933.66
2022-11-10T23:13:03.987Z,99924.66
2022-11-10T23:15:52.070Z,99927.28
2022-11-10T23:18:38.916Z,99937.38
2022-11-10T23:21:26.601Z,99930.06
2022-11-10T23:24:13.455Z,99938.63
2022-11-10T23:26:58.252Z,99931.00
2022-11-10T23:29:43.088Z,99939.59
2022-11-10T23:32:27.924Z,99941.22
2022-11-10T23:35:12.888Z,99937.22
2022-11-10T23:37:59.559Z,99936.28
2022-11-10T23:40:44.595Z,99926.88
2022-11-10T23:43:29.976Z,99926.19
2022-11-10T23:46:15.205Z,99932.97
2022-11-10T23:49:00.362Z,99929.63
2022-11-10T23:51:45.159Z,99925.91
2022-11-10T23:54:30.191Z,99925.34
2022-11-10T23:57:14.959Z,99921.47
2022-11-10T23:59:59.875Z,99926.47
